Time;durP1;ratioP1;P1;durP2;ratioP2;P2;SDS_P1;SDS_P2;PMS_P1;PMS_P2;Temp;Humidity;BMP_temperature;BMP_pressure;BME280_temperature;BME280_humidity;BME280_pressure;Samples;Min_cycle;Max_cycle;Signal;HPM_P1;HPM_P2
2022/10/11 00:00:56;;;;;;;52.73;22.80;;;10.30;1.00;;;;;;5092403;28;20210;-88
2022/10/11 00:03:24;;;;;;;51.83;22.57;;;10.20;1.00;;;;;;5091687;28;20286;-89
2022/10/11 00:05:52;;;;;;;49.77;22.27;;;10.20;1.00;;;;;;5092207;28;20195;-89
2022/10/11 00:08:19;;;;;;;58.03;24.00;;;10.10;1.00;;;;;;5092585;28;20203;-88
2022/10/11 00:10:56;;;;;;;56.43;23.53;;;10.10;1.00;;;;;;5092424;28;20272;-88
2022/10/11 00:13:23;;;;;;;54.13;23.10;;;10.00;1.00;;;;;;5096741;28;20681;-88
2022/10/11 00:15:51;;;;;;;55.60;23.40;;;9.90;1.00;;;;;;5096360;28;20237;-90
2022/10/11 00:18:18;;;;;;;54.63;23.07;;;9.90;1.00;;;;;;5096761;28;20240;-88
2022/10/11 00:20:46;;;;;;;51.40;22.53;;;9.80;1.00;;;;;;5096478;28;20608;-89
2022/10/11 00:23:13;;;;;;;52.73;22.77;;;9.80;1.00;;;;;;5096132;28;20268;-89
2022/10/11 00:25:41;;;;;;;53.87;23.13;;;9.70;1.00;;;;;;5096444;28;20187;-88
2022/10/11 00:28:08;;;;;;;52.93;22.90;;;9.80;1.00;;;;;;5096540;28;20256;-88
2022/10/11 00:30:35;;;;;;;49.67;22.13;;;9.80;1.00;;;;;;5095934;28;20710;-88
2022/10/11 00:33:02;;;;;;;58.13;24.07;;;9.80;1.00;;;;;;5096330;28;20244;-89
2022/10/11 00:35:29;;;;;;;52.50;22.73;;;9.80;1.00;;;;;;5096446;28;20240;-88
2022/10/11 00:37:57;;;;;;;57.00;23.97;;;9.90;1.00;;;;;;5096384;28;20191;-88
2022/10/11 00:40:24;;;;;;;56.50;23.57;;;10.00;1.00;;;;;;5096274;28;20199;-89
2022/10/11 00:42:51;;;;;;;57.53;23.80;;;10.00;1.00;;;;;;5095690;28;20190;-89
2022/10/11 00:45:55;;;;;;;56.97;24.00;;;10.10;1.00;;;;;;5096105;28;20238;-88
2022/10/11 00:48:26;;;;;;;56.53;23.70;;;10.10;1.00;;;;;;5093736;28;20248;-89
2022/10/11 00:50:54;;;;;;;56.97;23.70;;;10.10;1.00;;;;;;5095904;28;20207;-89
2022/10/11 00:53:23;;;;;;;56.87;23.70;;;10.10;1.00;;;;;;5095910;28;20191;-88
2022/10/11 00:55:53;;;;;;;56.07;23.80;;;10.10;14.90;;;;;;5095677;28;20191;-89
2022/10/11 00:58:21;;;;;;;54.77;23.33;;;10.20;3.70;;;;;;5095941;28;20620;-88
2022/10/11 01:00:49;;;;;;;56.63;23.70;;;10.30;31.00;;;;;;5095056;28;20187;-89
2022/10/11 01:03:19;;;;;;;55.57;23.40;;;10.30;47.70;;;;;;5095870;28;20195;-88
2022/10/11 01:05:47;;;;;;;56.00;23.60;;;10.30;61.00;;;;;;5095890;28;20183;-88
2022/10/11 01:08:14;;;;;;;54.60;23.30;;;10.30;98.00;;;;;;5095176;28;20187;-89
2022/10/11 01:10:42;;;;;;;55.37;23.43;;;10.40;97.60;;;;;;5095647;28;20628;-89
2022/10/11 01:13:22;;;;;;;54.93;23.33;;;10.30;99.90;;;;;;5095689;28;20195;-88
2022/10/11 01:15:57;;;;;;;57.00;23.83;;;10.30;93.90;;;;;;5095755;28;20179;-89
2022/10/11 01:18:32;;;;;;;56.93;23.67;;;10.30;99.90;;;;;;5095607;28;20187;-89
2022/10/11 01:21:06;;;;;;;53.20;23.03;;;10.30;70.50;;;;;;5095792;28;20213;-89
2022/10/11 01:23:59;;;;;;;56.40;23.33;;;10.30;99.90;;;;;;5095159;28;20203;-89
2022/10/11 01:26:51;;;;;;;56.00;23.43;;;10.20;99.90;;;;;;5087703;28;20248;-89
2022/10/11 01:29:29;;;;;;;58.60;24.00;;;10.20;99.90;;;;;;5095333;28;20207;-89
2022/10/11 01:32:06;;;;;;;59.20;24.13;;;10.20;99.90;;;;;;5095072;28;20689;-89
2022/10/11 01:34:40;;;;;;;59.27;24.30;;;10.10;99.90;;;;;;5094459;28;20642;-89
2022/10/11 01:37:13;;;;;;;57.50;23.63;;;10.20;99.90;;;;;;5095085;28;20634;-89
2022/10/11 01:39:46;;;;;;;59.10;24.13;;;10.10;99.90;;;;;;5094808;28;20191;-89
2022/10/11 01:42:15;;;;;;;59.47;24.20;;;10.10;99.90;;;;;;5094817;28;20237;-89
2022/10/11 01:44:45;;;;;;;58.23;23.97;;;10.10;99.90;;;;;;5095255;28;20203;-89
2022/10/11 01:47:18;;;;;;;57.33;23.70;;;10.00;99.90;;;;;;5094951;28;20175;-89
2022/10/11 01:49:45;;;;;;;59.53;24.27;;;10.00;99.90;;;;;;5095106;28;20227;-89
2022/10/11 01:52:13;;;;;;;56.70;23.37;;;9.90;96.30;;;;;;5095008;28;20285;-89
2022/10/11 01:54:50;;;;;;;58.27;23.87;;;9.80;95.30;;;;;;5094891;28;20199;-89
2022/10/11 01:57:49;;;;;;;57.50;23.77;;;9.80;99.90;;;;;;5094948;28;20175;-89
2022/10/11 02:00:19;;;;;;;57.43;23.77;;;9.70;97.10;;;;;;5084241;28;20195;-89
2022/10/11 02:03:01;;;;;;;57.47;23.77;;;9.60;99.90;;;;;;5094921;28;20207;-90
2022/10/11 02:05:37;;;;;;;58.43;23.83;;;9.50;99.90;;;;;;5095085;28;20199;-88
2022/10/11 02:08:13;;;;;;;57.20;23.77;;;9.50;96.40;;;;;;5094521;28;20179;-89
2022/10/11 02:10:46;;;;;;;55.20;23.30;;;9.40;75.80;;;;;;5094043;28;20241;-90
2022/10/11 02:13:17;;;;;;;52.77;22.90;;;9.40;82.50;;;;;;5094778;28;20175;-89
2022/10/11 02:15:47;;;;;;;51.83;22.47;;;9.30;97.40;;;;;;5094746;28;20208;-89
2022/10/11 02:18:20;;;;;;;49.93;22.17;;;9.30;99.90;;;;;;5094478;28;20191;-89
2022/10/11 02:20:48;;;;;;;49.67;21.97;;;9.30;51.10;;;;;;5094391;28;20188;-89
2022/10/11 02:23:32;;;;;;;48.80;21.77;;;9.20;99.90;;;;;;5094799;28;20268;-90
2022/10/11 02:26:04;;;;;;;50.10;22.27;;;9.10;99.70;;;;;;5094797;28;20573;-90
2022/10/11 02:28:35;;;;;;;50.40;22.27;;;9.10;99.90;;;;;;5094464;28;20241;-89
2022/10/11 02:31:05;;;;;;;49.90;22.00;;;9.10;96.70;;;;;;5094595;28;20203;-89
2022/10/11 02:33:40;;;;;;;49.07;21.90;;;9.00;99.90;;;;;;5094721;28;20191;-89
2022/10/11 02:36:14;;;;;;;48.90;21.83;;;9.00;99.90;;;;;;5094722;28;20243;-89
2022/10/11 02:38:48;;;;;;;48.73;21.90;;;9.00;99.90;;;;;;5094422;28;20266;-89
2022/10/11 02:41:21;;;;;;;49.30;21.87;;;8.90;66.60;;;;;;5094414;28;20288;-88
2022/10/11 02:43:57;;;;;;;48.90;21.90;;;8.90;40.30;;;;;;5093730;28;20232;-90
2022/10/11 02:46:28;;;;;;;47.70;21.50;;;8.80;37.90;;;;;;5094165;28;20206;-89
2022/10/11 02:48:57;;;;;;;47.77;21.63;;;8.80;36.10;;;;;;5093734;28;20268;-89
2022/10/11 02:51:25;;;;;;;47.70;21.47;;;8.70;44.80;;;;;;5093821;28;20218;-89
2022/10/11 02:53:53;;;;;;;48.60;21.80;;;8.70;61.70;;;;;;5094020;28;20192;-89
2022/10/11 02:56:20;;;;;;;50.83;22.27;;;8.70;57.90;;;;;;5094085;28;20682;-89
2022/10/11 02:58:47;;;;;;;48.93;21.73;;;8.70;65.60;;;;;;5094020;28;20191;-89
2022/10/11 03:01:14;;;;;;;49.47;21.83;;;8.60;51.20;;;;;;5093815;28;20587;-90
2022/10/11 03:03:41;;;;;;;47.00;21.20;;;8.60;17.90;;;;;;5094054;28;20195;-90
2022/10/11 03:06:10;;;;;;;48.60;21.80;;;8.50;29.20;;;;;;5093891;28;20284;-89
2022/10/11 03:08:37;;;;;;;48.50;21.73;;;8.50;38.10;;;;;;5093839;28;20245;-90
2022/10/11 03:11:04;;;;;;;43.70;20.67;;;8.40;22.90;;;;;;5093785;28;20579;-90
2022/10/11 03:13:31;;;;;;;44.10;20.67;;;8.40;55.70;;;;;;5094193;28;20253;-90
2022/10/11 03:15:59;;;;;;;47.53;21.30;;;8.40;35.30;;;;;;5094173;28;20218;-90
2022/10/11 03:18:26;;;;;;;48.37;21.57;;;8.40;31.50;;;;;;5094094;28;20244;-90
2022/10/11 03:20:53;;;;;;;47.67;21.50;;;8.40;41.20;;;;;;5080103;28;20195;-90
2022/10/11 03:23:21;;;;;;;48.60;21.67;;;8.30;68.30;;;;;;5078271;28;20192;-91
2022/10/11 03:25:48;;;;;;;47.07;21.40;;;8.30;73.10;;;;;;5093854;28;20598;-91
2022/10/11 03:28:15;;;;;;;47.97;21.63;;;8.30;28.10;;;;;;5093939;28;20547;-90
2022/10/11 03:30:42;;;;;;;47.27;21.40;;;8.20;64.90;;;;;;5093625;28;20215;-90
2022/10/11 03:33:09;;;;;;;46.67;21.20;;;8.20;94.70;;;;;;5093539;28;20195;-90
2022/10/11 03:35:36;;;;;;;45.97;21.00;;;8.20;67.00;;;;;;5094244;28;20206;-89
2022/10/11 03:38:03;;;;;;;44.37;20.77;;;8.10;64.50;;;;;;5093484;28;20195;-90
2022/10/11 03:40:32;;;;;;;46.97;21.30;;;8.10;61.60;;;;;;5093763;28;20198;-90
2022/10/11 03:42:59;;;;;;;45.33;20.87;;;8.10;57.90;;;;;;5093727;28;20203;-91
2022/10/11 03:45:26;;;;;;;43.77;20.67;;;8.00;22.60;;;;;;5093390;28;20206;-90
2022/10/11 03:47:53;;;;;;;43.47;20.53;;;8.00;89.90;;;;;;5093241;28;20252;-90
2022/10/11 03:50:20;;;;;;;42.13;20.23;;;7.90;52.90;;;;;;5093898;28;20306;-90
2022/10/11 03:52:47;;;;;;;41.07;19.90;;;7.90;82.40;;;;;;5093426;28;20261;-90
2022/10/11 03:55:14;;;;;;;40.00;19.70;;;7.90;56.50;;;;;;5093657;28;20199;-90
2022/10/11 03:57:42;;;;;;;40.63;19.80;;;7.90;98.40;;;;;;5093725;28;20188;-90
2022/10/11 04:00:10;;;;;;;39.53;19.63;;;7.80;91.40;;;;;;5093900;28;20207;-91
2022/10/11 04:02:37;;;;;;;37.67;19.07;;;7.80;71.50;;;;;;5093904;28;20191;-90
2022/10/11 04:05:05;;;;;;;38.47;19.33;;;7.70;99.60;;;;;;5093700;28;20206;-90
2022/10/11 04:07:32;;;;;;;38.77;19.30;;;7.70;90.40;;;;;;5092978;28;20209;-90
2022/10/11 04:10:00;;;;;;;39.20;19.47;;;7.70;96.50;;;;;;5093473;28;20207;-90
2022/10/11 04:12:27;;;;;;;37.67;19.00;;;7.60;99.90;;;;;;5093392;28;20210;-90
2022/10/11 04:14:55;;;;;;;38.47;19.20;;;7.60;99.90;;;;;;5093650;28;20202;-91
2022/10/11 04:17:22;;;;;;;37.27;18.93;;;7.50;99.90;;;;;;5093117;28;20207;-91
2022/10/11 04:19:50;;;;;;;36.07;18.77;;;7.50;99.90;;;;;;5093283;28;20199;-92
2022/10/11 04:22:17;;;;;;;37.70;19.17;;;7.50;98.30;;;;;;5093828;28;20225;-91
2022/10/11 04:24:44;;;;;;;32.20;17.80;;;7.50;99.90;;;;;;5093879;28;20195;-91
2022/10/11 04:27:11;;;;;;;54.30;22.80;;;7.40;66.40;;;;;;5093038;28;20418;-92
2022/10/11 04:29:39;;;;;;;31.27;17.40;;;7.30;79.50;;;;;;5093654;28;20443;-92
2022/10/11 04:32:31;;;;;;;37.27;19.20;;;7.30;99.90;;;;;;5093566;28;20260;-92
2022/10/11 04:35:14;;;;;;;44.10;20.50;;;7.30;93.20;;;;;;5096878;28;20192;-91
2022/10/11 04:37:44;;;;;;;42.20;20.13;;;7.30;99.90;;;;;;5075274;28;20216;-92
2022/10/11 04:40:15;;;;;;;41.40;20.00;;;7.30;99.90;;;;;;5079021;28;20207;-91
2022/10/11 04:42:43;;;;;;;44.00;20.50;;;7.30;99.90;;;;;;5098148;28;20523;-92
2022/10/11 04:45:11;;;;;;;43.57;20.40;;;7.30;99.90;;;;;;5097547;28;20282;-92
2022/10/11 04:47:40;;;;;;;45.60;20.80;;;7.30;99.90;;;;;;5093117;28;20278;-92
2022/10/11 04:50:11;;;;;;;44.23;20.67;;;7.30;99.90;;;;;;5093812;28;20223;-92
2022/10/11 04:52:38;;;;;;;43.27;20.10;;;7.30;99.90;;;;;;5099034;28;20225;-91
2022/10/11 04:55:07;;;;;;;44.87;20.80;;;7.20;99.90;;;;;;5099757;28;20199;-90
2022/10/11 04:57:34;;;;;;;43.20;20.30;;;7.20;99.60;;;;;;5100228;28;20195;-91
2022/10/11 05:00:02;;;;;;;43.47;20.50;;;7.10;99.90;;;;;;5103742;28;20206;-91
2022/10/11 05:02:29;;;;;;;42.63;20.20;;;7.10;99.90;;;;;;5103200;28;20258;-92
2022/10/11 05:04:58;;;;;;;38.07;19.23;;;7.10;99.90;;;;;;5097219;28;20699;-92
2022/10/11 05:07:25;;;;;;;37.17;19.03;;;7.00;99.90;;;;;;5097089;28;20222;-91
2022/10/11 05:09:53;;;;;;;40.53;19.77;;;7.00;99.90;;;;;;5096881;28;20244;-92
2022/10/11 05:12:24;;;;;;;38.73;19.23;;;7.00;99.90;;;;;;5097711;28;20321;-91
2022/10/11 05:14:51;;;;;;;33.67;18.13;;;6.90;99.90;;;;;;5098962;28;20195;-91
2022/10/11 05:17:19;;;;;;;;;;;6.90;99.90;;;;;;5096923;28;20202;-91
2022/10/11 05:19:46;;;;;;;41.77;19.87;;;6.90;99.90;;;;;;5096597;28;20391;-90
2022/10/11 05:22:15;;;;;;;43.17;20.40;;;6.90;99.90;;;;;;5096541;28;20198;-93
2022/10/11 05:24:43;;;;;;;40.57;19.77;;;6.90;99.90;;;;;;5096860;28;20208;-91
2022/10/11 05:27:11;;;;;;;43.27;20.33;;;6.90;99.90;;;;;;5096678;28;20286;-92
2022/10/11 05:29:38;;;;;;;44.10;20.53;;;6.90;99.90;;;;;;5096486;28;20202;-91
2022/10/11 05:32:06;;;;;;;37.97;19.20;;;6.90;99.90;;;;;;5098915;28;20669;-91
2022/10/11 05:34:59;;;;;;;41.77;19.83;;;6.90;99.90;;;;;;5100089;28;20207;-92
2022/10/11 05:37:28;;;;;;;38.17;19.17;;;6.90;99.90;;;;;;5103609;28;20179;-92
2022/10/11 05:39:55;;;;;;;42.30;20.03;;;6.90;99.90;;;;;;5099233;28;20235;-90
2022/10/11 05:42:23;;;;;;;42.30;20.07;;;7.00;99.90;;;;;;5098193;28;20670;-90
2022/10/11 05:45:02;;;;;;;43.20;20.13;;;7.10;99.90;;;;;;5099126;28;20689;-91
2022/10/11 05:47:32;;;;;;;44.13;20.63;;;7.20;99.90;;;;;;5101254;28;20633;-93
2022/10/11 05:50:00;;;;;;;44.30;20.60;;;7.30;99.90;;;;;;5095877;28;20227;-93
2022/10/11 05:52:58;;;;;;;42.50;20.13;;;7.40;99.90;;;;;;5102678;28;20224;-92
2022/10/11 05:55:26;;;;;;;40.63;19.87;;;7.50;99.90;;;;;;5102250;28;20550;-90
2022/10/11 05:58:00;;;;;;;41.80;19.93;;;7.70;99.90;;;;;;5099421;28;20195;-93
2022/10/11 06:00:27;;;;;;;42.07;20.20;;;7.70;99.90;;;;;;5100441;28;20305;-90
2022/10/11 06:03:00;;;;;;;;;;;7.80;99.90;;;;;;5097167;28;20198;-93
2022/10/11 06:05:36;;;;;;;46.97;21.27;;;7.90;99.90;;;;;;5100024;28;20177;-93
2022/10/11 06:08:15;;;;;;;45.15;20.85;;;7.90;99.90;;;;;;5104587;28;20214;-92
2022/10/11 06:10:57;;;;;;;43.88;20.45;;;8.00;1.00;;;;;;5101025;28;20214;-91
2022/10/11 06:13:31;;;;;;;44.67;20.83;;;8.00;99.90;;;;;;5103840;28;20272;-91
2022/10/11 06:16:00;;;;;;;43.58;20.58;;;8.20;99.90;;;;;;5080392;28;20200;-92
2022/10/11 06:18:27;;;;;;;41.55;19.98;;;8.20;99.90;;;;;;5084903;28;20230;-91
2022/10/11 06:21:10;;;;;;;43.13;20.63;;;8.40;99.90;;;;;;5080299;28;20208;-93
2022/10/11 06:23:50;;;;;;;42.63;20.23;;;8.50;1.00;;;;;;5079827;28;20668;-91
2022/10/11 06:26:19;;;;;;;43.03;20.63;;;8.60;1.00;;;;;;5083218;28;20257;-91
2022/10/11 06:28:47;;;;;;;41.25;20.10;;;8.70;1.00;;;;;;5084994;28;20184;-93
2022/10/11 06:31:32;;;;;;;41.40;20.20;;;8.90;1.00;;;;;;5098910;28;20191;-93
2022/10/11 06:34:08;;;;;;;42.83;20.55;;;9.00;1.00;;;;;;5067875;28;20252;-92
2022/10/11 06:36:53;;;;;;;33.63;18.65;;;9.20;1.00;;;;;;5103292;28;20202;-94
2022/10/11 06:39:26;;;;;;;34.77;18.77;;;9.40;1.00;;;;;;5099517;28;20206;-95
2022/10/11 06:42:15;;;;;;;32.83;18.25;;;9.60;1.00;;;;;;5103749;28;20183;-92
2022/10/11 06:44:43;;;;;;;37.80;19.42;;;9.90;1.00;;;;;;5100629;28;20203;-94
2022/10/11 06:47:10;;;;;;;39.67;19.95;;;10.20;1.00;;;;;;5095020;28;20611;-91
2022/10/11 06:50:05;;;;;;;47.63;21.98;;;10.70;99.90;;;;;;5098433;28;20235;-93
2022/10/11 06:52:32;;;;;;;60.28;24.50;;;11.60;8.90;;;;;;5102050;28;20201;-90
2022/10/11 06:55:01;;;;;;;80.68;27.88;;;12.50;1.00;;;;;;5101489;28;20205;-94
2022/10/11 06:57:29;;;;;;;88.32;28.55;;;13.40;99.90;;;;;;5101314;28;20225;-92
2022/10/11 07:00:03;;;;;;;;;;;14.20;1.00;;;;;;5103924;28;20209;-92
2022/10/11 07:02:30;;;;;;;30.50;18.73;;;15.00;1.00;;;;;;5100871;28;20057;-92
2022/10/11 07:04:57;;;;;;;29.67;18.48;;;15.70;99.90;;;;;;5102259;28;20253;-92
2022/10/11 07:07:29;;;;;;;47.97;22.88;;;16.20;99.90;;;;;;5101707;28;20202;-91
2022/10/11 07:09:56;;;;;;;71.40;27.10;;;16.70;99.90;;;;;;5097113;28;20180;-90
2022/10/11 07:12:34;;;;;;;;;;;17.10;99.90;;;;;;5096988;28;20218;-91
2022/10/11 07:15:09;;;;;;;81.85;28.33;;;17.60;25.70;;;;;;5095751;28;20376;-92
2022/10/11 07:17:42;;;;;;;59.67;25.63;;;18.00;1.00;;;;;;5098463;28;20233;-92
2022/10/11 07:20:11;;;;;;;55.77;24.90;;;18.40;1.00;;;;;;5099447;28;20555;-90
2022/10/11 07:22:38;;;;;;;59.97;25.77;;;18.90;1.00;;;;;;5098916;28;20010;-89
2022/10/11 07:25:10;;;;;;;62.00;26.25;;;19.20;1.00;;;;;;5100201;28;20205;-92
2022/10/11 07:27:39;;;;;;;59.88;26.00;;;19.50;1.00;;;;;;5098755;28;20210;-89
2022/10/11 07:30:06;;;;;;;;;;;19.80;1.00;;;;;;5102485;28;20231;-89
2022/10/11 07:32:35;;;;;;;58.65;25.75;;;20.00;1.00;;;;;;5103017;28;20011;-92
2022/10/11 07:35:02;;;;;;;68.20;27.05;;;20.10;1.00;;;;;;5102221;28;20195;-88
2022/10/11 07:37:34;;;;;;;68.40;26.95;;;20.30;1.00;;;;;;5096870;28;20194;-90
2022/10/11 07:40:01;;;;;;;94.20;29.60;;;20.50;1.00;;;;;;5101270;28;20099;-94
2022/10/11 07:42:36;;;;;;;123.35;32.90;;;21.10;1.00;;;;;;5098200;28;20201;-89
2022/10/11 07:45:09;;;;;;;;;;;21.80;1.00;;;;;;5096161;28;20666;-91
2022/10/11 07:47:47;;;;;;;129.05;33.50;;;22.40;1.00;;;;;;5100269;28;20194;-91
2022/10/11 07:50:17;;;;;;;131.40;34.20;;;22.90;1.00;;;;;;5098007;28;20234;-90
2022/10/11 07:53:11;;;;;;;124.13;32.78;;;23.30;1.00;;;;;;5102396;28;20201;-91
2022/10/11 07:55:42;;;;;;;123.75;32.25;;;23.40;1.00;;;;;;5099160;28;20229;-90
2022/10/11 07:58:24;;;;;;;128.57;33.08;;;23.40;1.00;;;;;;5098915;28;20254;-89
2022/10/11 08:00:54;;;;;;;129.88;33.35;;;23.40;1.00;;;;;;5099074;28;20200;-91
2022/10/11 08:03:21;;;;;;;133.35;33.78;;;23.40;1.00;;;;;;5102752;28;20187;-91
2022/10/11 08:05:54;;;;;;;134.48;33.58;;;23.20;1.00;;;;;;5101801;28;20192;-93
2022/10/11 08:08:24;;;;;;;136.43;34.03;;;23.40;1.00;;;;;;5095987;28;20237;-91
2022/10/11 08:10:54;;;;;;;135.82;33.95;;;23.70;1.00;;;;;;5098821;28;20629;-89
2022/10/11 08:13:21;;;;;;;138.65;34.30;;;23.80;1.00;;;;;;5096085;28;20277;-86
2022/10/11 08:15:56;;;;;;;138.63;34.10;;;23.90;1.00;;;;;;5100874;28;20193;-94
2022/10/11 08:18:29;;;;;;;139.48;34.20;;;23.90;1.00;;;;;;5102245;28;20193;-93
2022/10/11 08:20:56;;;;;;;141.02;33.92;;;23.90;1.00;;;;;;5102320;28;20266;-89
2022/10/11 08:23:23;;;;;;;142.35;34.38;;;23.90;1.00;;;;;;5098928;28;20190;-86
2022/10/11 08:25:56;;;;;;;141.32;33.90;;;23.80;1.00;;;;;;5098601;28;20220;-87
2022/10/11 08:28:34;;;;;;;;;;;;;;;;;;;;;
2022/10/11 08:31:02;;;;;;;143.70;34.78;;;23.50;1.00;;;;;;5100367;28;20297;-89
2022/10/11 08:33:41;;;;;;;137.68;34.08;;;23.50;1.00;;;;;;5103516;28;20213;-91
2022/10/11 08:36:18;;;;;;;134.68;33.70;;;23.40;1.00;;;;;;5105097;28;20235;-89
2022/10/11 08:38:45;;;;;;;140.18;34.40;;;23.30;1.00;;;;;;5084230;28;20185;-91
2022/10/11 08:41:30;;;;;;;142.85;34.30;;;23.10;1.00;;;;;;5085786;28;20190;-89
2022/10/11 08:44:17;;;;;;;144.65;34.13;;;23.20;1.00;;;;;;5081592;28;20190;-87
2022/10/11 08:46:48;;;;;;;143.10;34.38;;;23.50;1.00;;;;;;5103372;28;20182;-87
2022/10/11 08:49:19;;;;;;;143.45;34.38;;;23.70;1.00;;;;;;5104677;28;20711;-89
2022/10/11 08:51:58;;;;;;;142.82;33.97;;;23.70;1.00;;;;;;5104565;28;20214;-91
2022/10/11 08:54:36;;;;;;;143.75;34.60;;;23.70;1.00;;;;;;5105013;28;20271;-88
2022/10/11 08:57:09;;;;;;;146.65;34.83;;;23.70;1.00;;;;;;5102541;28;20189;-92
2022/10/11 08:59:45;;;;;;;146.73;34.50;;;23.80;1.00;;;;;;5111692;28;20179;-91
2022/10/11 09:02:26;;;;;;;146.00;34.28;;;23.90;1.00;;;;;;5101218;28;20601;-88
2022/10/11 09:04:56;;;;;;;147.13;34.47;;;23.90;1.00;;;;;;5103272;28;20183;-90
2022/10/11 09:07:38;;;;;;;147.57;34.78;;;24.00;1.00;;;;;;5103804;28;20187;-87
2022/10/11 09:10:29;;;;;;;146.63;34.50;;;24.00;1.00;;;;;;5102394;28;20212;-87
2022/10/11 09:13:05;;;;;;;146.20;34.58;;;24.00;1.00;;;;;;5103501;28;20218;-87
2022/10/11 09:15:39;;;;;;;147.90;34.50;;;23.90;1.00;;;;;;5105815;28;20184;-87
2022/10/11 09:18:36;;;;;;;149.93;34.60;;;23.80;1.00;;;;;;5102965;28;20237;-88
2022/10/11 09:21:22;;;;;;;149.10;34.60;;;23.80;1.00;;;;;;5107463;28;20235;-89
2022/10/11 09:24:13;;;;;;;149.23;34.55;;;23.80;1.00;;;;;;5102118;28;20193;-86
2022/10/11 09:26:51;;;;;;;149.93;34.83;;;23.70;1.00;;;;;;5106119;28;20186;-87
2022/10/11 09:29:32;;;;;;;149.25;34.85;;;23.60;1.00;;;;;;5106506;28;20182;-92
2022/10/11 09:31:59;;;;;;;153.07;35.35;;;23.50;1.00;;;;;;5102385;28;20178;-87
2022/10/11 09:34:32;;;;;;;143.32;34.50;;;23.50;1.00;;;;;;5100703;28;20605;-88
2022/10/11 09:37:16;;;;;;;136.13;33.83;;;23.40;1.00;;;;;;5103111;28;20163;-88
2022/10/11 09:40:01;;;;;;;134.18;33.45;;;23.30;1.00;;;;;;5104251;28;20180;-86
2022/10/11 09:42:28;;;;;;;130.20;32.85;;;22.90;1.00;;;;;;5101551;28;20545;-88
2022/10/11 09:47:42;;;;;;;126.60;32.55;;;22.50;1.00;;;;;;5096611;28;20224;-86
2022/10/11 09:50:18;;;;;;;89.43;29.30;;;21.70;1.00;;;;;;5100786;28;20292;-88
2022/10/11 09:53:13;;;;;;;64.97;26.35;;;20.80;1.00;;;;;;5103537;28;20202;-87
2022/10/11 09:55:49;;;;;;;70.97;27.10;;;20.00;1.00;;;;;;5097164;28;20184;-88
2022/10/11 09:58:29;;;;;;;61.65;25.40;;;19.50;1.00;;;;;;5098509;28;20185;-86
2022/10/11 10:01:02;;;;;;;61.97;25.85;;;19.00;1.00;;;;;;5096915;28;20636;-87
2022/10/11 10:03:36;;;;;;;62.15;25.73;;;18.50;1.00;;;;;;5098745;28;20172;-88
2022/10/11 10:06:10;;;;;;;61.20;25.63;;;18.40;1.00;;;;;;5101116;28;20179;-87
2022/10/11 10:08:38;;;;;;;60.60;25.48;;;18.50;1.00;;;;;;5079160;28;20188;-87
2022/10/11 10:11:07;;;;;;;58.30;25.15;;;18.80;1.00;;;;;;5081129;28;20258;-86
2022/10/11 10:13:44;;;;;;;56.67;24.55;;;18.60;1.00;;;;;;5079027;28;20204;-88
2022/10/11 10:16:25;;;;;;;59.42;25.13;;;18.30;1.00;;;;;;5094505;28;20226;-86
2022/10/11 10:18:55;;;;;;;58.28;25.05;;;18.20;1.00;;;;;;5105120;28;20682;-87
2022/10/11 10:21:41;;;;;;;58.65;25.10;;;18.00;1.00;;;;;;5098353;28;20198;-87
2022/10/11 10:24:19;;;;;;;59.08;25.23;;;17.90;1.00;;;;;;5100290;28;20191;-86
2022/10/11 10:27:06;;;;;;;58.97;25.23;;;17.80;1.00;;;;;;5102220;28;20175;-86
2022/10/11 10:29:34;;;;;;;59.03;24.92;;;17.80;1.00;;;;;;5103989;28;20179;-86
2022/10/11 10:32:09;;;;;;;56.47;24.77;;;17.80;1.00;;;;;;5096711;28;20549;-87
2022/10/11 10:34:38;;;;;;;66.00;26.45;;;17.90;1.00;;;;;;5099014;28;20206;-85
2022/10/11 10:37:25;;;;;;;56.33;24.70;;;18.00;1.00;;;;;;5100487;28;20191;-89
2022/10/11 10:40:01;;;;;;;55.10;24.40;;;18.00;1.00;;;;;;5104993;28;20236;-89
2022/10/11 10:42:28;;;;;;;54.83;24.20;;;17.90;1.00;;;;;;5095806;28;20199;-86
2022/10/11 10:45:02;;;;;;;55.72;24.73;;;18.00;1.00;;;;;;5099506;28;20206;-86
2022/10/11 10:47:49;;;;;;;56.05;24.73;;;18.20;1.00;;;;;;5104527;28;20195;-85
2022/10/11 10:50:23;;;;;;;58.83;25.30;;;18.40;1.00;;;;;;5101749;28;20222;-89
2022/10/11 10:53:05;;;;;;;56.53;24.77;;;18.40;1.00;;;;;;5103308;28;20180;-86
2022/10/11 10:55:42;;;;;;;55.20;24.25;;;18.40;1.00;;;;;;5103405;28;20183;-88
2022/10/11 10:58:35;;;;;;;56.97;24.88;;;18.40;1.00;;;;;;5101476;28;20633;-89
2022/10/11 11:01:10;;;;;;;58.50;25.23;;;18.30;1.00;;;;;;5103085;28;20199;-88
2022/10/11 11:03:44;;;;;;;60.03;25.33;;;18.20;1.00;;;;;;5086652;28;20183;-88
2022/10/11 11:06:25;;;;;;;60.40;25.50;;;17.90;1.00;;;;;;5081408;28;20192;-90
2022/10/11 11:09:09;;;;;;;62.30;25.75;;;17.80;1.00;;;;;;5081432;28;20581;-90
2022/10/11 11:11:47;;;;;;;61.72;25.75;;;18.00;1.00;;;;;;5098585;28;20180;-86
2022/10/11 11:14:25;;;;;;;62.75;25.85;;;18.20;1.00;;;;;;5098096;28;20203;-87
2022/10/11 11:17:06;;;;;;;61.20;25.65;;;18.30;1.00;;;;;;5098120;28;20184;-92
2022/10/11 11:19:47;;;;;;;59.80;25.25;;;18.40;1.00;;;;;;5101031;28;20644;-86
2022/10/11 11:22:30;;;;;;;60.50;25.23;;;18.30;1.00;;;;;;5097670;28;20175;-90
2022/10/11 11:25:14;;;;;;;62.60;25.50;;;18.30;1.00;;;;;;5099891;28;20187;-90
2022/10/11 11:27:59;;;;;;;63.50;26.00;;;18.10;1.00;;;;;;5107396;28;20179;-90
2022/10/11 11:30:34;;;;;;;63.25;25.85;;;18.10;1.00;;;;;;5097946;28;20171;-85
2022/10/11 11:33:09;;;;;;;63.53;25.85;;;18.20;1.00;;;;;;5093245;28;20236;-85
2022/10/11 11:35:41;;;;;;;64.15;25.98;;;18.20;1.00;;;;;;5100553;28;20183;-85
2022/10/11 11:38:16;;;;;;;63.17;25.92;;;18.30;1.00;;;;;;5107976;28;20248;-88
2022/10/11 11:40:52;;;;;;;63.85;26.23;;;18.30;1.00;;;;;;5105367;28;20178;-88
2022/10/11 11:43:31;;;;;;;62.60;25.63;;;18.20;1.00;;;;;;5098309;28;20174;-87
2022/10/11 11:46:08;;;;;;;63.70;25.98;;;18.10;1.00;;;;;;5098018;28;20233;-89
2022/10/11 11:48:57;;;;;;;62.70;25.73;;;18.00;1.00;;;;;;5099228;28;20211;-89
2022/10/11 11:51:26;;;;;;;;;;;17.50;1.00;;;;;;5097780;28;20551;-87
2022/10/11 11:53:59;;;;;;;56.80;24.65;;;17.10;1.00;;;;;;5100598;28;20184;-87
2022/10/11 11:56:51;;;;;;;57.15;24.73;;;17.00;1.00;;;;;;5106731;28;20187;-88
2022/10/11 11:59:40;;;;;;;60.22;25.25;;;16.70;1.00;;;;;;5102528;28;20183;-92
2022/10/11 12:02:44;;;;;;;59.80;25.25;;;16.60;1.00;;;;;;5099051;28;20582;-85
2022/10/11 12:05:15;;;;;;;58.10;24.85;;;16.50;1.00;;;;;;5080767;28;20248;-86
2022/10/11 12:07:59;;;;;;;57.95;24.80;;;16.30;1.00;;;;;;5105526;28;20195;-89
2022/10/11 12:10:35;;;;;;;57.15;24.65;;;16.20;1.00;;;;;;5105073;28;20191;-85
2022/10/11 12:13:24;;;;;;;56.75;24.55;;;16.10;1.00;;;;;;5109640;28;20222;-87
2022/10/11 12:16:13;;;;;;;59.45;25.00;;;16.00;1.00;;;;;;5100822;28;20533;-88
2022/10/11 12:19:03;;;;;;;59.10;24.92;;;16.10;1.00;;;;;;5102749;28;20233;-86
2022/10/11 12:21:35;;;;;;;59.42;25.05;;;16.30;1.00;;;;;;5106214;28;20202;-90
2022/10/11 12:24:20;;;;;;;59.53;25.05;;;16.50;1.00;;;;;;5104647;28;20187;-88
2022/10/11 12:26:48;;;;;;;59.45;25.05;;;16.60;1.00;;;;;;5104864;28;20187;-85
2022/10/11 12:29:46;;;;;;;56.40;24.55;;;16.90;1.00;;;;;;5107211;28;20247;-87
2022/10/11 12:32:48;;;;;;;57.15;24.60;;;17.10;1.00;;;;;;5101102;28;20183;-86
2022/10/11 12:35:49;;;;;;;57.67;24.88;;;17.40;1.00;;;;;;5111444;28;20210;-87
2022/10/11 12:38:21;;;;;;;58.58;25.15;;;17.50;1.00;;;;;;5104958;28;20213;-87
2022/10/11 12:40:49;;;;;;;58.17;24.80;;;17.60;1.00;;;;;;5109694;28;20176;-85
2022/10/11 12:44:05;;;;;;;58.40;25.05;;;17.60;1.00;;;;;;5101796;28;20645;-85
2022/10/11 12:50:10;;;;;;;58.20;24.95;;;17.60;1.00;;;;;;5092731;28;20223;-85
2022/10/11 12:52:51;;;;;;;57.47;24.55;;;17.60;1.00;;;;;;5103292;28;20286;-85
2022/10/11 12:55:33;;;;;;;57.00;24.45;;;17.60;1.00;;;;;;5104064;28;20187;-87
2022/10/11 12:58:27;;;;;;;58.00;24.95;;;17.60;1.00;;;;;;5099891;28;20172;-86
2022/10/11 13:01:20;;;;;;;58.05;24.88;;;17.60;1.00;;;;;;5100468;28;20179;-87
2022/10/11 13:03:52;;;;;;;58.47;24.95;;;17.60;1.00;;;;;;5104267;28;20668;-85
2022/10/11 13:06:23;;;;;;;57.80;24.75;;;17.70;1.00;;;;;;5101101;28;20204;-88
2022/10/11 13:09:05;;;;;;;58.47;24.95;;;17.70;1.00;;;;;;5102849;28;20209;-89
2022/10/11 13:11:36;;;;;;;58.38;24.85;;;17.60;1.00;;;;;;5103595;28;20252;-88
2022/10/11 13:14:17;;;;;;;59.45;25.08;;;17.60;1.00;;;;;;5112396;28;20219;-90
2022/10/11 13:17:09;;;;;;;59.15;25.10;;;17.60;1.00;;;;;;5105376;28;20217;-91
2022/10/11 13:19:38;;;;;;;59.78;25.20;;;17.60;1.00;;;;;;5079602;28;20198;-87